Time;durP1;ratioP1;P1;durP2;ratioP2;P2;SDS_P1;SDS_P2;PMS_P1;PMS_P2;Temp;Humidity;BMP_temperature;BMP_pressure;BME280_temperature;BME280_humidity;BME280_pressure;Samples;Min_cycle;Max_cycle;Signal;HPM_P1;HPM_P2
2022/03/06 00:01:54;;;;;;;;;;;18.50;40.70;;;;;;5011794;28;21628;-72
2022/03/06 00:04:21;;;;;;;86.47;6.95;;;18.30;40.20;;;;;;5002576;28;19962;-72
2022/03/06 00:06:47;;;;;;;40.65;3.95;;;18.30;40.30;;;;;;5016810;28;20094;-72
2022/03/06 00:09:13;;;;;;;;;;;18.40;39.60;;;;;;5027214;28;20193;-75
2022/03/06 00:11:40;;;;;;;53.63;3.65;;;18.50;38.80;;;;;;5009013;28;19981;-74
2022/03/06 00:14:06;;;;;;;;;;;18.40;37.10;;;;;;5009911;28;20075;-70
2022/03/06 00:16:32;;;;;;;22.35;2.58;;;18.30;37.10;;;;;;5030992;28;19962;-72
2022/03/06 00:18:58;;;;;;;;;;;18.40;35.70;;;;;;5028719;28;20183;-71
2022/03/06 00:21:24;;;;;;;29.90;2.83;;;18.20;35.40;;;;;;5028743;28;20046;-74
2022/03/06 00:23:51;;;;;;;31.25;3.30;;;18.00;35.20;;;;;;5030351;28;20104;-70
2022/03/06 00:26:17;;;;;;;;;;;18.00;35.40;;;;;;5031645;28;20085;-72
2022/03/06 00:28:43;;;;;;;27.98;3.20;;;18.00;35.70;;;;;;5030516;28;20351;-69
2022/03/06 00:31:09;;;;;;;;;;;17.90;35.20;;;;;;5012977;28;20085;-71
2022/03/06 00:33:36;;;;;;;24.63;2.53;;;18.00;34.80;;;;;;5029593;28;19973;-73
2022/03/06 00:36:03;;;;;;;;;;;18.00;34.50;;;;;;5030265;28;20460;-72
2022/03/06 00:38:29;;;;;;;19.77;2.75;;;17.80;34.60;;;;;;5028879;28;20474;-73
2022/03/06 00:40:55;;;;;;;;;;;17.60;35.50;;;;;;5032067;28;20078;-73
2022/03/06 00:43:21;;;;;;;13.05;2.00;;;17.60;36.10;;;;;;5012276;28;20005;-74
2022/03/06 00:45:47;;;;;;;;;;;17.60;35.70;;;;;;5027462;28;20544;-73
2022/03/06 00:48:14;;;;;;;10.73;2.47;;;17.50;36.10;;;;;;5026838;28;20428;-71
2022/03/06 00:50:40;;;;;;;;;;;17.40;36.50;;;;;;5030588;28;20378;-71
2022/03/06 00:53:07;;;;;;;10.38;1.95;;;17.50;37.40;;;;;;5025624;28;19958;-71
2022/03/06 00:55:34;;;;;;;9.50;1.95;;;17.60;36.80;;;;;;5008307;28;20078;-73
2022/03/06 00:58:07;;;;;;;9.13;1.95;;;17.60;36.60;;;;;;5011720;28;20082;-72
2022/03/06 01:00:39;;;;;;;17.13;3.50;;;17.50;36.50;;;;;;5029261;28;20082;-72
2022/03/06 01:03:08;;;;;;;17.83;3.58;;;17.50;37.10;;;;;;5009761;28;20128;-71
2022/03/06 01:05:35;;;;;;;26.45;3.90;;;17.40;38.30;;;;;;5012608;28;20079;-73
2022/03/06 01:08:02;;;;;;;38.25;4.80;;;17.30;39.90;;;;;;5027834;28;20251;-71
2022/03/06 01:10:29;;;;;;;25.17;4.10;;;17.20;40.60;;;;;;5028984;28;20470;-73
2022/03/06 01:12:55;;;;;;;37.58;4.05;;;17.00;41.10;;;;;;5028161;28;20070;-72
2022/03/06 01:15:22;;;;;;;32.65;3.45;;;16.80;41.40;;;;;;5010636;28;21191;-71
2022/03/06 01:17:48;;;;;;;32.53;3.90;;;16.60;41.70;;;;;;5031570;28;20074;-71
2022/03/06 01:20:17;;;;;;;;;;;16.70;41.90;;;;;;5029989;28;20548;-73
2022/03/06 01:22:44;;;;;;;22.60;2.70;;;16.50;42.30;;;;;;5031472;28;19965;-69
2022/03/06 01:25:11;;;;;;;29.85;3.25;;;16.30;43.00;;;;;;5027959;28;20078;-70
2022/03/06 01:27:40;;;;;;;25.33;3.00;;;16.30;43.80;;;;;;5030245;28;20070;-70
2022/03/06 01:30:10;;;;;;;32.50;3.53;;;16.20;44.30;;;;;;5013028;28;20066;-73
2022/03/06 01:32:37;;;;;;;17.02;3.22;;;16.10;44.80;;;;;;5032458;28;20070;-72
2022/03/06 01:35:05;;;;;;;18.58;2.28;;;16.20;45.00;;;;;;5033418;28;20070;-70
2022/03/06 01:37:34;;;;;;;23.13;3.33;;;16.10;44.70;;;;;;5036415;28;20078;-71
2022/03/06 01:40:03;;;;;;;17.45;2.50;;;16.10;44.60;;;;;;5037626;28;20567;-71
2022/03/06 01:42:29;;;;;;;25.45;5.03;;;16.00;44.60;;;;;;5015078;28;20177;-70
2022/03/06 01:44:58;;;;;;;;;;;15.90;44.70;;;;;;5032690;28;20080;-69
2022/03/06 01:47:52;;;;;;;14.18;2.28;;;15.90;44.70;;;;;;5013193;28;20319;-69
2022/03/06 01:50:28;;;;;;;8.45;2.20;;;15.80;43.50;;;;;;5035079;28;20090;-75
2022/03/06 01:52:57;;;;;;;13.77;1.90;;;15.80;42.10;;;;;;5033080;28;20116;-66
2022/03/06 01:55:25;;;;;;;16.73;2.15;;;15.90;41.50;;;;;;5018536;28;20074;-68
2022/03/06 01:57:55;;;;;;;16.77;2.22;;;15.80;41.00;;;;;;5004933;28;20066;-69
2022/03/06 02:00:25;;;;;;;16.92;2.08;;;15.90;39.70;;;;;;5031949;28;20131;-72
2022/03/06 02:02:53;;;;;;;16.42;2.03;;;15.90;39.90;;;;;;5013894;28;21311;-71
2022/03/06 02:05:20;;;;;;;12.02;2.00;;;15.90;40.00;;;;;;5019164;28;20184;-72
2022/03/06 02:07:47;;;;;;;19.10;2.70;;;15.80;39.60;;;;;;5033263;28;20140;-73
2022/03/06 02:10:14;;;;;;;10.30;2.15;;;15.80;39.70;;;;;;5033509;28;20085;-73
2022/03/06 02:12:44;;;;;;;17.70;2.88;;;15.80;39.80;;;;;;5014294;28;20082;-75
2022/03/06 02:15:13;;;;;;;14.82;2.60;;;15.70;40.10;;;;;;5032789;28;20077;-75
2022/03/06 02:17:39;;;;;;;21.75;2.47;;;15.70;39.90;;;;;;5033872;28;20085;-72
2022/03/06 02:20:19;;;;;;;10.52;2.25;;;15.70;40.10;;;;;;5033376;28;20141;-72
2022/03/06 02:22:50;;;;;;;15.98;2.85;;;15.60;39.50;;;;;;5013525;28;20532;-72
2022/03/06 02:25:23;;;;;;;13.20;2.92;;;15.60;39.10;;;;;;5032641;28;20102;-74
2022/03/06 02:27:51;;;;;;;20.45;2.35;;;15.60;38.60;;;;;;5032732;28;20166;-70
2022/03/06 02:30:21;;;;;;;14.38;2.97;;;15.60;38.50;;;;;;5031123;28;20080;-72
2022/03/06 02:32:50;;;;;;;15.75;2.22;;;15.50;38.30;;;;;;5015491;28;20109;-74
2022/03/06 02:35:17;;;;;;;9.80;2.08;;;15.40;38.30;;;;;;5033654;28;20093;-74
2022/03/06 02:37:44;;;;;;;15.48;2.40;;;15.40;38.20;;;;;;4999138;28;20143;-74
2022/03/06 02:40:12;;;;;;;12.02;2.33;;;15.30;37.90;;;;;;5034374;28;20601;-72
2022/03/06 02:42:41;;;;;;;19.33;3.00;;;15.30;37.70;;;;;;5015018;28;20109;-73
2022/03/06 02:45:28;;;;;;;15.65;2.50;;;15.30;37.50;;;;;;5031901;28;20439;-74
2022/03/06 02:47:55;;;;;;;16.90;3.10;;;15.20;37.80;;;;;;5031124;28;20447;-71
2022/03/06 02:50:26;;;;;;;10.50;2.72;;;15.30;38.20;;;;;;5032081;28;20076;-71
2022/03/06 02:52:53;;;;;;;13.68;3.40;;;15.10;38.90;;;;;;5014924;28;20080;-72
2022/03/06 02:55:20;;;;;;;15.07;2.45;;;15.00;39.70;;;;;;4997678;28;20532;-72
2022/03/06 02:57:47;;;;;;;20.85;3.28;;;14.90;40.50;;;;;;5035591;28;20074;-73
2022/03/06 03:00:18;;;;;;;18.17;3.45;;;14.80;40.90;;;;;;4996900;28;20070;-72
2022/03/06 03:02:45;;;;;;;27.15;3.50;;;14.70;41.80;;;;;;5033830;28;20070;-72
2022/03/06 03:05:12;;;;;;;20.05;3.10;;;14.70;42.30;;;;;;5016538;28;20078;-70
2022/03/06 03:07:44;;;;;;;22.00;3.67;;;14.60;42.90;;;;;;4996011;28;20444;-72
2022/03/06 03:10:13;;;;;;;20.33;3.30;;;14.50;43.70;;;;;;5033135;28;20696;-74
2022/03/06 03:12:40;;;;;;;17.08;3.85;;;14.40;44.90;;;;;;5031321;28;20545;-73
2022/03/06 03:15:08;;;;;;;23.38;2.95;;;14.40;46.20;;;;;;5012378;28;20562;-73
2022/03/06 03:17:35;;;;;;;19.17;3.83;;;14.30;46.80;;;;;;5013315;28;20169;-71
2022/03/06 03:20:02;;;;;;;20.25;4.43;;;14.30;46.80;;;;;;5015471;28;20100;-74
2022/03/06 03:22:28;;;;;;;33.50;4.68;;;14.20;47.00;;;;;;5016461;28;20081;-73
2022/03/06 03:24:54;;;;;;;;;;;14.20;47.30;;;;;;5014305;28;20106;-73
2022/03/06 03:27:20;;;;;;;20.80;3.72;;;14.10;47.10;;;;;;5032517;28;20008;-70
2022/03/06 03:29:46;;;;;;;;;;;14.10;46.70;;;;;;5032668;28;20180;-72
2022/03/06 03:32:13;;;;;;;27.70;3.55;;;14.10;46.10;;;;;;5013395;28;19957;-72
2022/03/06 03:34:39;;;;;;;;;;;14.00;45.20;;;;;;5034100;28;20074;-74
2022/03/06 03:37:05;;;;;;;23.88;3.90;;;14.00;44.50;;;;;;5032276;28;19958;-73
2022/03/06 03:39:32;;;;;;;;;;;14.00;44.30;;;;;;5031145;28;20078;-72
2022/03/06 03:42:01;;;;;;;14.93;2.60;;;13.90;45.20;;;;;;5014779;28;20031;-72
2022/03/06 03:44:27;;;;;;;9.75;2.60;;;13.90;46.40;;;;;;5015584;28;20078;-73
2022/03/06 03:46:53;;;;;;;;;;;13.80;47.70;;;;;;5033606;28;20543;-73
2022/03/06 03:49:20;;;;;;;6.82;1.98;;;13.70;47.80;;;;;;5028971;28;19977;-73
2022/03/06 03:51:46;;;;;;;11.48;2.60;;;13.60;47.60;;;;;;5030526;28;20567;-73
2022/03/06 03:54:13;;;;;;;;;;;13.50;47.70;;;;;;5014472;28;20097;-73
2022/03/06 03:56:39;;;;;;;10.90;2.20;;;13.40;48.30;;;;;;5030561;28;20023;-72
2022/03/06 03:59:05;;;;;;;;;;;13.20;49.30;;;;;;5033462;28;20127;-72
2022/03/06 04:01:32;;;;;;;18.77;3.00;;;13.10;50.00;;;;;;5030767;28;19962;-73
2022/03/06 04:03:58;;;;;;;;;;;13.00;50.30;;;;;;5030154;28;20276;-73
2022/03/06 04:06:24;;;;;;;25.58;4.15;;;12.90;50.70;;;;;;5011357;28;19966;-72
2022/03/06 04:08:50;;;;;;;20.98;4.18;;;12.80;51.20;;;;;;5014629;28;20488;-73
2022/03/06 04:11:17;;;;;;;;;;;12.80;51.40;;;;;;5032315;28;20081;-73
2022/03/06 04:13:44;;;;;;;19.08;3.28;;;12.80;51.70;;;;;;5029261;28;19957;-73
2022/03/06 04:16:10;;;;;;;21.10;2.53;;;12.90;51.90;;;;;;5028281;28;20093;-74
2022/03/06 04:18:36;;;;;;;;;;;12.80;51.80;;;;;;5029518;28;20078;-75
2022/03/06 04:21:03;;;;;;;12.95;2.38;;;12.80;51.50;;;;;;5013729;28;19980;-74
2022/03/06 04:23:29;;;;;;;;;;;12.70;50.90;;;;;;5066087;22;20120;-74
2022/03/06 04:25:55;;;;;;;14.07;3.00;;;12.80;50.30;;;;;;5068593;28;19965;-73
2022/03/06 04:28:22;;;;;;;18.33;3.47;;;12.80;49.90;;;;;;5084170;28;20096;-73
2022/03/06 04:30:48;;;;;;;13.95;2.58;;;12.80;49.50;;;;;;5067048;28;20146;-74
2022/03/06 04:33:14;;;;;;;;;;;12.90;49.00;;;;;;5084642;28;20080;-71
2022/03/06 04:35:41;;;;;;;12.48;2.92;;;12.90;49.10;;;;;;5067555;28;19957;-72
2022/03/06 04:38:07;;;;;;;10.57;2.83;;;12.90;49.50;;;;;;5068726;28;21003;-74
2022/03/06 04:40:33;;;;;;;;;;;12.90;49.80;;;;;;5075340;28;20083;-73
2022/03/06 04:42:59;;;;;;;6.60;1.98;;;13.00;50.20;;;;;;5077669;28;20016;-73
2022/03/06 04:45:26;;;;;;;;;;;13.00;50.60;;;;;;5068161;28;20073;-72
2022/03/06 04:47:53;;;;;;;12.10;2.13;;;12.90;50.60;;;;;;5067575;28;19960;-72
2022/03/06 04:50:19;;;;;;;6.13;2.15;;;12.90;50.70;;;;;;5083521;28;20160;-73
2022/03/06 04:52:45;;;;;;;;;;;13.00;50.70;;;;;;5067651;28;20065;-73
2022/03/06 04:55:12;;;;;;;12.93;2.25;;;12.90;50.90;;;;;;5068744;28;20844;-74
2022/03/06 04:57:38;;;;;;;;;;;12.90;51.10;;;;;;5067057;28;20448;-75
2022/03/06 05:00:06;;;;;;;8.55;2.10;;;12.90;51.20;;;;;;5066107;28;19961;-73
2022/03/06 05:02:33;;;;;;;14.52;2.85;;;12.80;51.50;;;;;;5067037;28;20168;-72
2022/03/06 05:04:59;;;;;;;8.02;2.33;;;12.80;51.80;;;;;;5068068;28;20104;-74
2022/03/06 05:07:26;;;;;;;9.43;2.80;;;12.80;52.10;;;;;;5067257;28;20093;-73
2022/03/06 05:09:53;;;;;;;12.70;2.78;;;12.80;52.20;;;;;;5066847;28;20105;-71
2022/03/06 05:12:19;;;;;;;9.95;2.90;;;12.80;52.20;;;;;;5068637;28;20069;-71
2022/03/06 05:14:45;;;;;;;12.38;2.85;;;12.70;52.10;;;;;;5065397;28;20558;-74
2022/03/06 05:17:12;;;;;;;8.13;2.45;;;12.70;51.70;;;;;;5066500;28;20089;-72
2022/03/06 05:19:38;;;;;;;;;;;12.70;51.20;;;;;;5067695;28;20117;-72
2022/03/06 05:22:04;;;;;;;10.63;2.05;;;12.80;50.80;;;;;;5066180;28;20427;-71
2022/03/06 05:24:31;;;;;;;6.60;1.70;;;12.80;50.30;;;;;;5066906;28;20542;-70
2022/03/06 05:26:57;;;;;;;;;;;12.80;49.80;;;;;;5067027;28;20440;-72
2022/03/06 05:29:23;;;;;;;12.35;2.63;;;12.80;49.60;;;;;;5065506;28;19985;-72
2022/03/06 05:31:50;;;;;;;12.98;1.90;;;12.80;49.70;;;;;;5067345;28;20543;-72
2022/03/06 05:34:16;;;;;;;;;;;12.80;49.70;;;;;;5068781;28;20081;-73
2022/03/06 05:36:42;;;;;;;11.15;2.05;;;12.80;49.60;;;;;;5068144;28;20548;-74
2022/03/06 05:39:08;;;;;;;;;;;12.80;49.40;;;;;;5067250;28;20543;-72
2022/03/06 05:41:35;;;;;;;9.38;2.35;;;12.80;49.00;;;;;;5066066;28;20037;-75
2022/03/06 05:44:01;;;;;;;9.70;2.30;;;12.80;48.80;;;;;;5067019;28;20081;-74
2022/03/06 05:46:27;;;;;;;10.50;2.92;;;12.80;49.00;;;;;;5066209;28;20539;-73
2022/03/06 05:48:53;;;;;;;;;;;12.80;49.00;;;;;;5067940;28;20182;-73
2022/03/06 05:51:20;;;;;;;7.72;2.85;;;12.70;49.00;;;;;;5066024;28;19969;-74
2022/03/06 05:53:46;;;;;;;8.63;2.88;;;12.70;49.10;;;;;;5065262;28;20103;-71
2022/03/06 05:56:13;;;;;;;;;;;12.70;49.10;;;;;;5066226;28;20543;-73
2022/03/06 05:58:39;;;;;;;7.22;2.50;;;12.80;49.00;;;;;;5065214;28;19968;-70
2022/03/06 06:01:05;;;;;;;;;;;12.80;48.90;;;;;;5065331;28;20075;-73
2022/03/06 06:03:32;;;;;;;9.93;2.45;;;12.80;48.60;;;;;;5065938;28;19957;-73
2022/03/06 06:05:58;;;;;;;4.75;1.98;;;12.80;49.30;;;;;;5064867;28;20530;-74
2022/03/06 06:08:25;;;;;;;7.63;1.98;;;12.80;49.60;;;;;;5066020;28;20085;-73
2022/03/06 06:10:51;;;;;;;;;;;12.80;50.20;;;;;;5067266;28;20082;-74
2022/03/06 06:13:19;;;;;;;2.97;1.10;;;12.80;50.50;;;;;;5066278;28;19973;-74
2022/03/06 06:15:45;;;;;;;4.55;1.10;;;12.80;50.60;;;;;;5067093;28;20069;-73
2022/03/06 06:18:12;;;;;;;3.13;0.90;;;12.70;50.70;;;;;;5070789;28;20095;-72
2022/03/06 06:20:38;;;;;;;7.15;1.90;;;12.70;50.90;;;;;;5072860;28;20193;-73
2022/03/06 06:23:05;;;;;;;4.07;1.30;;;12.70;51.00;;;;;;5085350;28;20108;-74
2022/03/06 06:25:31;;;;;;;10.73;2.00;;;12.70;51.00;;;;;;5070076;28;20172;-72
2022/03/06 06:27:57;;;;;;;;;;;12.60;51.10;;;;;;5087730;28;20365;-74
2022/03/06 06:30:24;;;;;;;7.28;2.17;;;12.60;51.00;;;;;;5070923;28;20004;-73
2022/03/06 06:32:50;;;;;;;9.90;4.38;;;12.60;50.90;;;;;;5070354;28;20075;-72
2022/03/06 06:35:16;;;;;;;;;;;12.60;50.90;;;;;;5072725;28;20527;-72
2022/03/06 06:37:43;;;;;;;19.90;3.13;;;12.60;50.80;;;;;;5070549;28;20042;-75
2022/03/06 06:40:10;;;;;;;7.43;1.65;;;12.60;51.00;;;;;;5086964;28;20918;-72
2022/03/06 06:42:36;;;;;;;10.43;1.60;;;12.60;51.30;;;;;;5085146;28;20076;-72
2022/03/06 06:45:03;;;;;;;8.52;1.67;;;12.60;51.50;;;;;;5068464;28;20139;-73
2022/03/06 06:47:29;;;;;;;7.65;1.95;;;12.60;51.80;;;;;;5072813;28;20442;-74
2022/03/06 06:49:56;;;;;;;6.68;2.40;;;12.60;52.20;;;;;;5071403;28;20099;-73
2022/03/06 06:52:22;;;;;;;8.05;2.20;;;12.50;52.50;;;;;;5076656;28;20076;-73
2022/03/06 06:54:48;;;;;;;;;;;12.50;52.70;;;;;;5073185;28;20461;-73
2022/03/06 06:57:14;;;;;;;8.10;1.48;;;12.50;53.00;;;;;;5076951;28;19964;-68
2022/03/06 06:59:41;;;;;;;5.32;1.30;;;12.60;53.10;;;;;;5071783;28;20073;-67
2022/03/06 07:02:07;;;;;;;;;;;12.60;52.80;;;;;;5058388;28;20085;-68
2022/03/06 07:04:33;;;;;;;10.15;2.03;;;12.60;52.70;;;;;;5058202;28;19995;-68
2022/03/06 07:07:00;;;;;;;4.95;1.98;;;12.60;52.40;;;;;;5084406;28;20096;-71
2022/03/06 07:09:26;;;;;;;;;;;12.60;52.00;;;;;;5060818;28;20092;-68
2022/03/06 07:11:52;;;;;;;10.27;2.10;;;12.60;51.70;;;;;;5082057;28;20033;-70
2022/03/06 07:14:18;;;;;;;;;;;12.60;51.50;;;;;;5089814;28;20537;-69
2022/03/06 07:16:45;;;;;;;5.03;1.33;;;12.60;51.40;;;;;;5087125;28;19963;-72
2022/03/06 07:19:12;;;;;;;7.40;1.67;;;12.60;51.50;;;;;;5088151;28;20207;-70
2022/03/06 07:21:38;;;;;;;9.27;1.90;;;12.50;51.50;;;;;;5067699;28;20081;-70
2022/03/06 07:24:06;;;;;;;7.47;1.40;;;12.60;51.50;;;;;;5069779;28;20121;-69
2022/03/06 07:26:33;;;;;;;7.65;1.58;;;12.60;51.50;;;;;;5077724;28;20548;-71
2022/03/06 07:28:59;;;;;;;6.30;1.58;;;12.50;51.40;;;;;;5062926;28;20149;-69
2022/03/06 07:31:25;;;;;;;7.53;2.22;;;12.60;51.60;;;;;;5069535;28;20102;-71
2022/03/06 07:33:51;;;;;;;;;;;12.50;51.50;;;;;;5070190;28;20130;-72
2022/03/06 07:36:18;;;;;;;6.57;1.75;;;12.50;51.60;;;;;;5065003;28;19979;-72
2022/03/06 07:38:44;;;;;;;;;;;12.50;51.60;;;;;;5066084;28;20100;-72
2022/03/06 07:41:11;;;;;;;5.88;1.60;;;12.50;51.60;;;;;;5061608;28;19988;-73
2022/03/06 07:43:37;;;;;;;4.03;1.42;;;12.50;51.70;;;;;;5044973;28;20159;-72
2022/03/06 07:46:03;;;;;;;;;;;12.50;51.70;;;;;;5082067;28;20205;-73
2022/03/06 07:48:29;;;;;;;5.57;1.38;;;12.50;51.80;;;;;;5085385;28;19972;-71
2022/03/06 07:50:56;;;;;;;5.57;1.73;;;12.40;51.80;;;;;;5068287;28;20225;-72
2022/03/06 07:53:22;;;;;;;5.90;1.50;;;12.50;51.90;;;;;;5065751;28;20092;-71
2022/03/06 07:55:49;;;;;;;3.33;1.40;;;12.50;52.00;;;;;;5071503;28;20545;-71
2022/03/06 07:58:15;;;;;;;;;;;12.40;52.00;;;;;;5072384;28;20096;-73
2022/03/06 08:00:41;;;;;;;4.88;1.23;;;12.40;52.30;;;;;;5061054;28;19957;-71
2022/03/06 08:03:07;;;;;;;;;;;12.40;53.10;;;;;;5090824;28;20076;-72
2022/03/06 08:05:33;;;;;;;7.90;1.60;;;12.30;53.40;;;;;;5090074;28;19960;-72
2022/03/06 08:08:00;;;;;;;4.22;1.58;;;12.20;53.60;;;;;;5070361;28;20526;-71
2022/03/06 08:10:26;;;;;;;;;;;12.20;53.60;;;;;;5078482;28;20099;-68
2022/03/06 08:12:52;;;;;;;5.75;1.25;;;12.10;53.80;;;;;;5079119;28;20027;-71
2022/03/06 08:15:18;;;;;;;;;;;12.10;53.80;;;;;;5088322;28;20164;-71
2022/03/06 08:17:45;;;;;;;7.82;2.05;;;12.00;53.70;;;;;;5069290;28;20348;-69
2022/03/06 08:20:11;;;;;;;;;;;12.00;53.50;;;;;;5082772;28;20146;-71
2022/03/06 08:22:38;;;;;;;8.95;2.03;;;12.00;53.20;;;;;;5068590;28;20034;-69
2022/03/06 08:25:06;;;;;;;10.07;2.42;;;12.10;53.10;;;;;;5084237;28;20073;-70
2022/03/06 08:27:32;;;;;;;5.40;1.83;;;12.10;53.00;;;;;;5073577;28;20077;-70
2022/03/06 08:30:00;;;;;;;7.63;1.92;;;12.10;52.90;;;;;;5070204;28;20603;-69
2022/03/06 08:32:26;;;;;;;9.20;2.58;;;12.10;52.80;;;;;;5047044;28;20716;-70
2022/03/06 08:34:53;;;;;;;7.90;2.42;;;12.10;52.90;;;;;;5069018;28;20085;-71
2022/03/06 08:37:19;;;;;;;;;;;12.10;53.00;;;;;;5087809;28;20064;-69
2022/03/06 08:39:46;;;;;;;8.93;2.30;;;12.10;53.00;;;;;;5055398;28;19964;-71
2022/03/06 08:42:13;;;;;;;9.52;1.98;;;12.10;53.20;;;;;;5065372;28;20091;-70
2022/03/06 08:44:40;;;;;;;16.15;6.35;;;12.10;53.20;;;;;;5073443;28;20083;-69
2022/03/06 08:47:07;;;;;;;7.30;2.58;;;12.00;53.20;;;;;;5075914;28;20072;-69
2022/03/06 08:49:33;;;;;;;9.43;2.60;;;12.00;53.40;;;;;;5070657;28;20099;-70
2022/03/06 08:52:00;;;;;;;9.30;2.10;;;12.00;53.50;;;;;;5057138;28;20085;-70
2022/03/06 08:54:26;;;;;;;6.72;1.60;;;12.00;53.70;;;;;;5073857;28;20079;-71
2022/03/06 08:56:53;;;;;;;5.15;1.30;;;12.00;54.10;;;;;;5067909;28;20126;-70
2022/03/06 08:59:22;;;;;;;;;;;12.00;54.20;;;;;;5071338;28;20154;-70
2022/03/06 09:01:48;;;;;;;6.85;1.73;;;12.00;54.60;;;;;;5068507;28;19983;-71
2022/03/06 09:04:15;;;;;;;9.65;1.90;;;11.90;54.90;;;;;;5069467;28;20104;-70
2022/03/06 09:06:42;;;;;;;11.30;2.30;;;11.90;55.20;;;;;;5082219;28;20125;-69
2022/03/06 09:09:09;;;;;;;6.93;1.90;;;11.90;55.60;;;;;;5089054;28;20097;-70
2022/03/06 09:11:36;;;;;;;10.32;2.45;;;12.00;56.00;;;;;;5073772;28;20084;-71
2022/03/06 09:14:02;;;;;;;8.10;2.60;;;12.00;56.30;;;;;;5065804;28;20445;-71
2022/03/06 09:16:28;;;;;;;8.77;2.10;;;12.00;56.60;;;;;;5072605;28;20167;-70
2022/03/06 09:18:54;;;;;;;;;;;12.00;56.80;;;;;;5062675;28;20134;-70
2022/03/06 09:21:21;;;;;;;12.18;2.63;;;12.00;57.00;;;;;;5062121;28;19960;-70
2022/03/06 09:23:47;;;;;;;;;;;12.10;57.00;;;;;;5069402;28;20574;-70
2022/03/06 09:26:13;;;;;;;15.02;3.05;;;12.10;56.90;;;;;;5070905;28;19972;-69
2022/03/06 09:28:40;;;;;;;19.58;2.90;;;12.10;56.90;;;;;;5084860;28;20100;-69
2022/03/06 09:31:06;;;;;;;13.93;2.90;;;12.20;56.80;;;;;;5068315;28;20423;-73
2022/03/06 09:33:33;;;;;;;15.77;3.13;;;12.20;56.80;;;;;;5069076;28;20077;-69
2022/03/06 09:35:59;;;;;;;;;;;12.20;56.70;;;;;;5086884;28;20205;-70
2022/03/06 09:38:25;;;;;;;15.93;3.30;;;12.30;56.70;;;;;;5084491;28;20341;-70
2022/03/06 09:40:54;;;;;;;18.27;2.70;;;12.30;56.60;;;;;;5053343;28;20076;-68
2022/03/06 09:43:21;;;;;;;19.70;3.03;;;12.30;56.70;;;;;;5052389;28;20084;-69
2022/03/06 09:45:48;;;;;;;15.38;2.55;;;12.30;56.60;;;;;;5068560;28;20217;-73
2022/03/06 09:48:18;;;;;;;11.32;3.40;;;12.30;56.80;;;;;;5066789;28;20097;-69
2022/03/06 09:50:45;;;;;;;13.25;2.40;;;12.30;56.80;;;;;;5083879;28;20454;-71
2022/03/06 09:53:11;;;;;;;9.63;2.38;;;12.30;56.80;;;;;;5072054;28;20072;-70
2022/03/06 09:55:37;;;;;;;;;;;12.40;57.00;;;;;;5061143;28;20154;-68
2022/03/06 09:58:04;;;;;;;8.13;1.98;;;12.40;57.00;;;;;;5072542;28;20014;-71
2022/03/06 10:00:30;;;;;;;9.05;1.98;;;12.40;57.10;;;;;;5069898;28;20749;-71
2022/03/06 10:02:59;;;;;;;8.02;1.90;;;12.40;57.20;;;;;;5070344;28;20073;-71
2022/03/06 10:05:46;;;;;;;14.43;2.30;;;12.40;57.20;;;;;;5054502;28;20075;-70
2022/03/06 10:08:22;;;;;;;15.13;2.33;;;12.40;57.20;;;;;;5073081;28;20092;-69
2022/03/06 10:10:52;;;;;;;10.20;2.40;;;12.40;57.20;;;;;;5073539;28;20079;-70
2022/03/06 10:13:24;;;;;;;12.50;2.50;;;12.40;57.30;;;;;;5065385;28;20085;-69
2022/03/06 10:16:12;;;;;;;10.55;2.28;;;12.40;57.40;;;;;;5071529;28;20083;-70
2022/03/06 10:18:50;;;;;;;11.73;2.17;;;12.40;57.50;;;;;;5075126;28;20526;-69
2022/03/06 10:21:19;;;;;;;11.35;2.30;;;12.40;57.50;;;;;;5091767;28;20107;-69
2022/03/06 10:23:48;;;;;;;13.45;2.33;;;12.30;57.60;;;;;;5058427;28;20119;-71
2022/03/06 10:26:21;;;;;;;8.90;2.25;;;12.30;57.70;;;;;;5064714;28;20084;-71
2022/03/06 10:28:51;;;;;;;9.80;2.95;;;12.20;57.50;;;;;;5058102;28;20096;-69
2022/03/06 10:31:19;;;;;;;14.98;2.78;;;12.30;57.40;;;;;;5074128;28;20072;-70
2022/03/06 10:34:06;;;;;;;10.45;1.88;;;12.30;57.40;;;;;;5081463;28;20079;-70
2022/03/06 10:36:46;;;;;;;11.15;2.35;;;12.20;57.30;;;;;;5072773;28;20137;-70
2022/03/06 10:39:21;;;;;;;15.13;2.92;;;12.30;57.20;;;;;;5040595;28;20792;-72
2022/03/06 10:41:53;;;;;;;12.93;2.63;;;12.20;57.00;;;;;;5070667;28;20118;-70
2022/03/06 10:44:22;;;;;;;20.35;3.58;;;12.20;57.00;;;;;;5092584;28;20077;-70
2022/03/06 10:47:04;;;;;;;19.38;3.55;;;12.20;56.80;;;;;;5054327;28;20085;-70
2022/03/06 10:49:32;;;;;;;16.50;3.20;;;12.20;56.60;;;;;;5067549;28;20987;-70
2022/03/06 10:52:16;;;;;;;18.35;3.63;;;12.20;56.40;;;;;;5067411;28;20086;-71
2022/03/06 10:54:57;;;;;;;18.38;2.72;;;12.20;56.10;;;;;;5068319;28;20084;-70
2022/03/06 10:57:25;;;;;;;16.30;2.42;;;12.20;56.00;;;;;;5059597;28;20075;-70
2022/03/06 10:59:52;;;;;;;13.50;2.90;;;12.20;55.90;;;;;;5059689;28;20121;-71
2022/03/06 11:02:20;;;;;;;14.13;2.70;;;12.20;55.80;;;;;;5075910;28;20077;-71
2022/03/06 11:04:47;;;;;;;13.32;2.33;;;12.20;55.80;;;;;;5076594;28;20145;-70
2022/03/06 11:07:14;;;;;;;9.98;2.45;;;12.20;55.90;;;;;;5070338;28;20437;-69
2022/03/06 11:09:41;;;;;;;10.30;2.50;;;12.20;55.60;;;;;;5088852;28;20096;-69
2022/03/06 11:12:08;;;;;;;9.60;2.53;;;12.10;55.60;;;;;;5068816;28;20117;-70
2022/03/06 11:14:35;;;;;;;9.32;2.10;;;12.10;55.30;;;;;;5088406;28;20104;-70
2022/03/06 11:17:02;;;;;;;13.88;2.88;;;12.10;55.00;;;;;;5071497;28;20064;-69
2022/03/06 11:19:28;;;;;;;;;;;12.10;54.90;;;;;;5070867;28;20089;-71
2022/03/06 11:22:19;;;;;;;11.88;2.65;;;12.10;54.60;;;;;;5070572;28;19964;-70
2022/03/06 11:24:52;;;;;;;9.48;2.42;;;12.10;54.50;;;;;;5066332;28;20085;-69
2022/03/06 11:27:45;;;;;;;11.55;2.15;;;12.00;54.20;;;;;;5074972;28;20084;-71
2022/03/06 11:30:22;;;;;;;8.75;2.10;;;12.00;54.10;;;;;;5069663;28;20114;-72
2022/03/06 11:33:05;;;;;;;12.32;2.65;;;12.00;54.60;;;;;;5089397;28;20069;-71
2022/03/06 11:35:43;;;;;;;12.60;1.85;;;12.00;53.90;;;;;;5071750;28;20110;-70
2022/03/06 11:38:13;;;;;;;10.20;2.30;;;12.00;53.80;;;;;;5066630;28;20084;-72
2022/03/06 11:40:50;;;;;;;14.70;2.20;;;12.00;53.70;;;;;;5066101;28;20549;-70
2022/03/06 11:43:35;;;;;;;6.97;2.40;;;12.00;53.70;;;;;;5063545;28;20133;-70
2022/03/06 11:46:09;;;;;;;15.82;2.47;;;12.10;53.80;;;;;;5063235;28;20064;-70
2022/03/06 11:48:35;;;;;;;11.82;2.22;;;12.00;53.80;;;;;;5080605;28;21075;-70
2022/03/06 11:51:22;;;;;;;10.00;2.22;;;12.10;53.90;;;;;;5090717;28;20084;-69
2022/03/06 11:53:58;;;;;;;16.75;3.00;;;12.00;53.80;;;;;;5074197;28;20430;-71
2022/03/06 11:56:33;;;;;;;16.52;2.50;;;12.10;54.10;;;;;;5071677;28;20577;-71
2022/03/06 11:59:19;;;;;;;12.85;2.60;;;12.10;54.00;;;;;;5063314;28;20080;-71
2022/03/06 12:01:48;;;;;;;14.60;2.17;;;12.00;54.20;;;;;;5057131;28;20198;-70
2022/03/06 12:04:21;;;;;;;13.25;2.50;;;11.90;54.50;;;;;;5075368;28;20081;-70
2022/03/06 12:06:52;;;;;;;22.23;2.80;;;11.80;55.00;;;;;;5058448;28;20087;-71
2022/03/06 12:09:23;;;;;;;14.32;2.65;;;11.70;55.20;;;;;;5072669;28;20634;-70
2022/03/06 12:11:51;;;;;;;14.75;2.60;;;11.70;55.30;;;;;;5054330;28;20211;-71
2022/03/06 12:14:24;;;;;;;12.40;2.67;;;11.60;55.90;;;;;;5046532;28;20080;-71
2022/03/06 12:17:03;;;;;;;14.90;2.72;;;11.50;56.10;;;;;;5070911;28;20083;-71
2022/03/06 12:19:35;;;;;;;11.63;2.25;;;11.40;56.20;;;;;;5067831;28;20098;-70
2022/03/06 12:22:16;;;;;;;9.77;2.13;;;11.40;56.80;;;;;;5059611;28;20514;-69
2022/03/06 12:24:45;;;;;;;12.73;2.85;;;11.40;56.50;;;;;;5063679;28;20089;-70
2022/03/06 12:27:25;;;;;;;11.15;2.10;;;11.30;56.40;;;;;;5087862;28;20083;-70
2022/03/06 12:29:59;;;;;;;12.10;2.80;;;11.30;56.50;;;;;;5086903;28;20457;-71
2022/03/06 12:32:25;;;;;;;9.00;2.40;;;11.30;56.40;;;;;;5060494;28;20076;-72
2022/03/06 12:35:05;;;;;;;11.65;2.80;;;11.30;56.50;;;;;;5058749;28;20068;-72
2022/03/06 12:37:35;;;;;;;18.45;2.70;;;11.30;56.40;;;;;;5079729;28;20084;-71
2022/03/06 12:40:06;;;;;;;17.10;2.28;;;11.30;56.20;;;;;;5088373;28;20142;-71
2022/03/06 12:42:34;;;;;;;13.88;2.53;;;11.30;56.30;;;;;;5088584;28;20093;-71
2022/03/06 12:45:16;;;;;;;13.32;2.03;;;11.30;56.40;;;;;;5092689;28;20503;-72
2022/03/06 12:47:45;;;;;;;13.00;2.40;;;11.30;56.50;;;;;;5077991;28;20101;-70
2022/03/06 12:50:17;;;;;;;12.57;2.55;;;11.30;56.50;;;;;;5066844;28;20158;-71
2022/03/06 12:52:45;;;;;;;10.40;1.95;;;11.30;56.60;;;;;;5083931;28;20519;-70
2022/03/06 12:55:16;;;;;;;14.68;2.92;;;11.20;56.90;;;;;;5089968;28;20207;-70
2022/03/06 12:57:57;;;;;;;14.13;3.05;;;11.20;57.10;;;;;;5057332;28;20080;-72
2022/03/06 13:00:31;;;;;;;11.63;2.88;;;11.10;57.30;;;;;;5089697;28;20065;-72
2022/03/06 13:03:01;;;;;;;8.90;2.38;;;11.10;57.50;;;;;;5063709;28;20526;-72